sensor_id;sensor_type;location;lat;lon;timestamp;pressure;altitude;pressure_sealevel;temperature;humidity
61287;BME280;56412;53.148;8.204;2022-09-30T00:01:21;100716.47;;;14.70;58.65
61287;BME280;56412;53.148;8.204;2022-09-30T00:03:49;100716.03;;;14.76;58.27
61287;BME280;56412;53.148;8.204;2022-09-30T00:06:15;100712.78;;;14.73;58.40
61287;BME280;56412;53.148;8.204;2022-09-30T00:08:40;100710.41;;;14.70;58.55
61287;BME280;56412;53.148;8.204;2022-09-30T00:11:08;100710.31;;;14.71;58.60
61287;BME280;56412;53.148;8.204;2022-09-30T00:13:40;100710.31;;;14.71;58.40
61287;BME280;56412;53.148;8.204;2022-09-30T00:16:08;100706.72;;;14.61;58.42
61287;BME280;56412;53.148;8.204;2022-09-30T00:18:34;100712.75;;;14.62;58.80
61287;BME280;56412;53.148;8.204;2022-09-30T00:21:00;100720.00;;;14.58;58.47
61287;BME280;56412;53.148;8.204;2022-09-30T00:23:26;100725.44;;;14.55;58.38
61287;BME280;56412;53.148;8.204;2022-09-30T00:25:56;100719.63;;;14.51;58.57
61287;BME280;56412;53.148;8.204;2022-09-30T00:28:29;100721.84;;;14.45;58.59
61287;BME280;56412;53.148;8.204;2022-09-30T00:31:04;100713.78;;;14.48;58.42
61287;BME280;56412;53.148;8.204;2022-09-30T00:33:32;100710.59;;;14.44;58.62
61287;BME280;56412;53.148;8.204;2022-09-30T00:35:59;100715.38;;;14.38;58.65
61287;BME280;56412;53.148;8.204;2022-09-30T00:38:24;100715.03;;;14.31;58.36
61287;BME280;56412;53.148;8.204;2022-09-30T00:40:50;100724.84;;;14.27;58.94
61287;BME280;56412;53.148;8.204;2022-09-30T00:43:17;100726.72;;;14.25;58.86
61287;BME280;56412;53.148;8.204;2022-09-30T00:46:08;100723.38;;;14.23;58.72
61287;BME280;56412;53.148;8.204;2022-09-30T00:48:43;100721.72;;;14.22;59.02
61287;BME280;56412;53.148;8.204;2022-09-30T00:51:10;100723.50;;;14.22;58.98
61287;BME280;56412;53.148;8.204;2022-09-30T00:56:13;100723.06;;;14.04;59.62
61287;BME280;56412;53.148;8.204;2022-09-30T00:58:52;100722.28;;;14.15;58.76
61287;BME280;56412;53.148;8.204;2022-09-30T01:01:24;100724.69;;;14.18;58.63
61287;BME280;56412;53.148;8.204;2022-09-30T01:03:53;100718.75;;;14.16;58.97
61287;BME280;56412;53.148;8.204;2022-09-30T01:06:23;100723.22;;;14.14;58.54
61287;BME280;56412;53.148;8.204;2022-09-30T01:08:48;100730.22;;;14.13;58.92
61287;BME280;56412;53.148;8.204;2022-09-30T01:11:14;100729.63;;;14.09;59.13
61287;BME280;56412;53.148;8.204;2022-09-30T01:13:40;100727.91;;;13.97;59.26
61287;BME280;56412;53.148;8.204;2022-09-30T01:16:26;100725.31;;;13.97;59.27
61287;BME280;56412;53.148;8.204;2022-09-30T01:19:18;100727.19;;;13.95;58.89
61287;BME280;56412;53.148;8.204;2022-09-30T01:24:50;100727.03;;;13.73;59.18
61287;BME280;56412;53.148;8.204;2022-09-30T01:30:16;100726.63;;;13.66;59.42
61287;BME280;56412;53.148;8.204;2022-09-30T01:35:29;100726.69;;;13.53;60.08
61287;BME280;56412;53.148;8.204;2022-09-30T01:40:39;100729.81;;;13.46;60.02
61287;BME280;56412;53.148;8.204;2022-09-30T01:43:13;100725.34;;;13.35;60.19
61287;BME280;56412;53.148;8.204;2022-09-30T01:45:45;100731.28;;;13.37;60.11
61287;BME280;56412;53.148;8.204;2022-09-30T01:51:10;100719.50;;;13.44;60.41
61287;BME280;56412;53.148;8.204;2022-09-30T01:53:44;100719.41;;;13.46;59.97
61287;BME280;56412;53.148;8.204;2022-09-30T01:56:18;100718.78;;;13.42;59.87
61287;BME280;56412;53.148;8.204;2022-09-30T01:58:56;100720.25;;;13.33;59.80
61287;BME280;56412;53.148;8.204;2022-09-30T02:04:34;100714.53;;;13.28;60.01
61287;BME280;56412;53.148;8.204;2022-09-30T02:07:04;100730.22;;;13.14;60.21
61287;BME280;56412;53.148;8.204;2022-09-30T02:09:58;100724.91;;;13.03;60.65
61287;BME280;56412;53.148;8.204;2022-09-30T02:12:25;100733.66;;;13.14;60.32
61287;BME280;56412;53.148;8.204;2022-09-30T02:15:01;100734.09;;;13.21;60.19
61287;BME280;56412;53.148;8.204;2022-09-30T02:17:34;100734.16;;;13.19;59.66
61287;BME280;56412;53.148;8.204;2022-09-30T02:20:08;100732.13;;;13.12;59.67
61287;BME280;56412;53.148;8.204;2022-09-30T02:22:39;100739.91;;;13.12;59.70
61287;BME280;56412;53.148;8.204;2022-09-30T02:25:11;100732.13;;;13.12;59.56
61287;BME280;56412;53.148;8.204;2022-09-30T02:27:45;100739.59;;;13.04;59.66
61287;BME280;56412;53.148;8.204;2022-09-30T02:30:16;100737.00;;;13.04;59.50
61287;BME280;56412;53.148;8.204;2022-09-30T02:32:44;100739.81;;;13.01;59.42
61287;BME280;56412;53.148;8.204;2022-09-30T02:35:16;100739.06;;;12.99;59.55
61287;BME280;56412;53.148;8.204;2022-09-30T02:37:51;100740.72;;;13.00;59.77
61287;BME280;56412;53.148;8.204;2022-09-30T02:40:28;100745.91;;;13.00;59.68
61287;BME280;56412;53.148;8.204;2022-09-30T02:43:00;100744.06;;;13.02;59.57
61287;BME280;56412;53.148;8.204;2022-09-30T02:45:27;100741.78;;;12.97;59.64
61287;BME280;56412;53.148;8.204;2022-09-30T02:53:22;100757.34;;;12.84;59.89
61287;BME280;56412;53.148;8.204;2022-09-30T02:58:36;100760.84;;;12.58;60.99
61287;BME280;56412;53.148;8.204;2022-09-30T03:01:04;100773.94;;;12.56;61.00
61287;BME280;56412;53.148;8.204;2022-09-30T03:03:39;100757.63;;;12.67;60.06
61287;BME280;56412;53.148;8.204;2022-09-30T03:06:09;100762.00;;;12.66;59.88
61287;BME280;56412;53.148;8.204;2022-09-30T03:08:35;100772.59;;;12.63;59.76
61287;BME280;56412;53.148;8.204;2022-09-30T03:11:00;100772.06;;;12.58;59.85
61287;BME280;56412;53.148;8.204;2022-09-30T03:16:20;100772.78;;;12.47;59.79
61287;BME280;56412;53.148;8.204;2022-09-30T03:18:57;100770.28;;;12.46;60.04
61287;BME280;56412;53.148;8.204;2022-09-30T03:24:45;100774.53;;;12.47;59.63
61287;BME280;56412;53.148;8.204;2022-09-30T03:30:00;100781.84;;;12.55;59.52
61287;BME280;56412;53.148;8.204;2022-09-30T03:35:06;100781.22;;;12.64;59.49
61287;BME280;56412;53.148;8.204;2022-09-30T03:43:19;100783.00;;;12.76;60.06
61287;BME280;56412;53.148;8.204;2022-09-30T03:46:15;100790.41;;;12.82;59.78
61287;BME280;56412;53.148;8.204;2022-09-30T03:48:47;100789.81;;;12.91;59.89
61287;BME280;56412;53.148;8.204;2022-09-30T03:51:17;100788.13;;;12.90;59.92
61287;BME280;56412;53.148;8.204;2022-09-30T03:53:44;100798.03;;;12.85;60.02
61287;BME280;56412;53.148;8.204;2022-09-30T03:56:13;100793.88;;;12.95;59.64
61287;BME280;56412;53.148;8.204;2022-09-30T03:58:40;100789.63;;;12.94;59.90
61287;BME280;56412;53.148;8.204;2022-09-30T04:01:15;100792.44;;;12.91;60.02
61287;BME280;56412;53.148;8.204;2022-09-30T04:03:46;100789.63;;;12.94;59.81
61287;BME280;56412;53.148;8.204;2022-09-30T04:06:12;100792.44;;;12.91;60.25
61287;BME280;56412;53.148;8.204;2022-09-30T04:08:38;100795.44;;;12.98;60.23
61287;BME280;56412;53.148;8.204;2022-09-30T04:11:04;100803.13;;;13.00;59.85
61287;BME280;56412;53.148;8.204;2022-09-30T04:13:29;100817.06;;;12.99;59.78
61287;BME280;56412;53.148;8.204;2022-09-30T04:15:55;100810.31;;;12.96;59.85
61287;BME280;56412;53.148;8.204;2022-09-30T04:18:20;100803.25;;;12.98;59.62
61287;BME280;56412;53.148;8.204;2022-09-30T04:20:46;100810.91;;;12.87;60.24
61287;BME280;56412;53.148;8.204;2022-09-30T04:23:11;100817.41;;;12.67;60.97
61287;BME280;56412;53.148;8.204;2022-09-30T04:25:36;100823.13;;;12.59;60.97
61287;BME280;56412;53.148;8.204;2022-09-30T04:28:02;100814.53;;;12.71;61.37
61287;BME280;56412;53.148;8.204;2022-09-30T04:30:27;100817.13;;;12.84;60.64
61287;BME280;56412;53.148;8.204;2022-09-30T04:32:53;100815.63;;;12.94;60.34
61287;BME280;56412;53.148;8.204;2022-09-30T04:35:18;100817.28;;;12.95;60.47
61287;BME280;56412;53.148;8.204;2022-09-30T04:37:44;100823.72;;;12.90;60.28
61287;BME280;56412;53.148;8.204;2022-09-30T04:40:11;100825.69;;;12.86;60.77
61287;BME280;56412;53.148;8.204;2022-09-30T04:42:37;100836.81;;;12.88;60.85
61287;BME280;56412;53.148;8.204;2022-09-30T04:45:04;100829.03;;;12.88;60.59
61287;BME280;56412;53.148;8.204;2022-09-30T04:47:30;100840.66;;;12.83;60.89
61287;BME280;56412;53.148;8.204;2022-09-30T04:49:55;100843.44;;;12.80;61.16
61287;BME280;56412;53.148;8.204;2022-09-30T04:52:21;100851.25;;;12.80;60.93
61287;BME280;56412;53.148;8.204;2022-09-30T04:54:46;100848.06;;;12.62;61.94
61287;BME280;56412;53.148;8.204;2022-09-30T04:57:12;100843.25;;;12.83;61.26
61287;BME280;56412;53.148;8.204;2022-09-30T04:59:38;100852.78;;;12.82;61.44
61287;BME280;56412;53.148;8.204;2022-09-30T05:02:03;100853.53;;;12.84;60.70
61287;BME280;56412;53.148;8.204;2022-09-30T05:04:29;100858.59;;;12.73;61.11
61287;BME280;56412;53.148;8.204;2022-09-30T05:06:55;100850.94;;;12.84;60.87
61287;BME280;56412;53.148;8.204;2022-09-30T05:09:20;100854.75;;;12.79;60.99
61287;BME280;56412;53.148;8.204;2022-09-30T05:11:45;100856.34;;;12.81;60.77
61287;BME280;56412;53.148;8.204;2022-09-30T05:14:11;100865.22;;;12.91;60.50
61287;BME280;56412;53.148;8.204;2022-09-30T05:16:36;100856.69;;;12.89;60.47
61287;BME280;56412;53.148;8.204;2022-09-30T05:19:02;100862.63;;;12.91;60.32
61287;BME280;56412;53.148;8.204;2022-09-30T05:21:27;100864.28;;;12.92;60.14
61287;BME280;56412;53.148;8.204;2022-09-30T05:23:52;100857.16;;;12.82;60.27
61287;BME280;56412;53.148;8.204;2022-09-30T05:26:18;100857.00;;;12.70;60.75
61287;BME280;56412;53.148;8.204;2022-09-30T05:28:43;100858.59;;;12.73;60.22
61287;BME280;56412;53.148;8.204;2022-09-30T05:31:08;100857.91;;;12.57;60.58
61287;BME280;56412;53.148;8.204;2022-09-30T05:33:36;100864.22;;;12.53;60.47
61287;BME280;56412;53.148;8.204;2022-09-30T05:36:03;100868.72;;;12.50;60.55
61287;BME280;56412;53.148;8.204;2022-09-30T05:38:30;100874.44;;;12.56;60.30
61287;BME280;56412;53.148;8.204;2022-09-30T05:40:55;100875.16;;;12.58;59.97
61287;BME280;56412;53.148;8.204;2022-09-30T05:43:21;100881.22;;;12.44;60.40
61287;BME280;56412;53.148;8.204;2022-09-30T05:45:53;100880.03;;;12.35;60.78
61287;BME280;56412;53.148;8.204;2022-09-30T05:48:19;100878.75;;;12.42;60.37
61287;BME280;56412;53.148;8.204;2022-09-30T05:50:45;100888.81;;;12.47;59.81
61287;BME280;56412;53.148;8.204;2022-09-30T05:53:16;100884.03;;;12.41;59.87
61287;BME280;56412;53.148;8.204;2022-09-30T05:55:45;100886.69;;;12.26;60.40
61287;BME280;56412;53.148;8.204;2022-09-30T05:58:11;100891.94;;;12.25;60.14
61287;BME280;56412;53.148;8.204;2022-09-30T06:00:39;100890.56;;;12.19;60.34
61287;BME280;56412;53.148;8.204;2022-09-30T06:03:06;100896.59;;;12.05;60.83
61287;BME280;56412;53.148;8.204;2022-09-30T06:05:31;100897.97;;;12.11;60.71
61287;BME280;56412;53.148;8.204;2022-09-30T06:07:57;100905.94;;;12.22;60.59
61287;BME280;56412;53.148;8.204;2022-09-30T06:10:22;100898.28;;;12.21;60.69
61287;BME280;56412;53.148;8.204;2022-09-30T06:12:48;100904.84;;;12.26;60.52
61287;BME280;56412;53.148;8.204;2022-09-30T06:15:13;100898.16;;;12.37;60.18
61287;BME280;56412;53.148;8.204;2022-09-30T06:17:38;100897.31;;;12.36;60.24
61287;BME280;56412;53.148;8.204;2022-09-30T06:20:06;100906.09;;;12.48;60.00
61287;BME280;56412;53.148;8.204;2022-09-30T06:22:33;100902.97;;;12.43;59.95
61287;BME280;56412;53.148;8.204;2022-09-30T06:25:04;100908.16;;;12.43;60.38
61287;BME280;56412;53.148;8.204;2022-09-30T06:27:32;100907.28;;;12.57;59.98
61287;BME280;56412;53.148;8.204;2022-09-30T06:29:57;100901.28;;;12.56;60.19
61287;BME280;56412;53.148;8.204;2022-09-30T06:32:23;100906.16;;;12.61;59.88
61287;BME280;56412;53.148;8.204;2022-09-30T06:34:50;100906.41;;;12.70;59.63
61287;BME280;56412;53.148;8.204;2022-09-30T06:37:16;100906.88;;;12.77;59.97
61287;BME280;56412;53.148;8.204;2022-09-30T06:39:42;100894.38;;;12.82;59.25
61287;BME280;56412;53.148;8.204;2022-09-30T06:42:07;100906.03;;;12.77;59.86
61287;BME280;56412;53.148;8.204;2022-09-30T06:44:34;100909.84;;;12.71;59.91
61287;BME280;56412;53.148;8.204;2022-09-30T06:46:59;100912.16;;;12.76;60.17
61287;BME280;56412;53.148;8.204;2022-09-30T06:49:25;100913.03;;;12.89;59.85
61287;BME280;56412;53.148;8.204;2022-09-30T06:51:51;100931.94;;;12.91;59.69
61287;BME280;56412;53.148;8.204;2022-09-30T06:54:16;100917.72;;;12.96;60.01
61287;BME280;56412;53.148;8.204;2022-09-30T06:56:43;100921.22;;;12.83;60.03
61287;BME280;56412;53.148;8.204;2022-09-30T06:59:09;100922.41;;;12.91;60.18
61287;BME280;56412;53.148;8.204;2022-09-30T07:01:35;100935.13;;;12.55;61.07
61287;BME280;56412;53.148;8.204;2022-09-30T07:04:00;100931.16;;;12.20;61.94
61287;BME280;56412;53.148;8.204;2022-09-30T07:06:31;100943.97;;;12.38;61.28
61287;BME280;56412;53.148;8.204;2022-09-30T07:08:57;100937.06;;;12.65;61.14
61287;BME280;56412;53.148;8.204;2022-09-30T07:11:22;100942.41;;;13.04;60.57
61287;BME280;56412;53.148;8.204;2022-09-30T07:13:48;100937.38;;;13.15;59.79
61287;BME280;56412;53.148;8.204;2022-09-30T07:16:15;100939.69;;;13.32;59.49
61287;BME280;56412;53.148;8.204;2022-09-30T07:18:42;100936.72;;;13.51;59.68
61287;BME280;56412;53.148;8.204;2022-09-30T07:21:09;100933.91;;;13.67;59.01
61287;BME280;56412;53.148;8.204;2022-09-30T07:23:36;100936.94;;;13.35;59.35
61287;BME280;56412;53.148;8.204;2022-09-30T07:26:02;100943.72;;;13.63;58.96
61287;BME280;56412;53.148;8.204;2022-09-30T07:28:32;100944.56;;;13.77;58.98
61287;BME280;56412;53.148;8.204;2022-09-30T07:31:00;100938.19;;;13.94;58.49
61287;BME280;56412;53.148;8.204;2022-09-30T07:33:30;100940.06;;;14.04;58.03
61287;BME280;56412;53.148;8.204;2022-09-30T07:35:57;100938.69;;;14.12;58.42
61287;BME280;56412;53.148;8.204;2022-09-30T07:38:25;100936.31;;;14.08;58.23
61287;BME280;56412;53.148;8.204;2022-09-30T07:40:57;100932.06;;;13.95;58.78
61287;BME280;56412;53.148;8.204;2022-09-30T07:43:25;100936.09;;;14.24;58.71
61287;BME280;56412;53.148;8.204;2022-09-30T07:46:00;100930.31;;;14.32;57.96
61287;BME280;56412;53.148;8.204;2022-09-30T07:48:27;100935.53;;;14.32;58.10
61287;BME280;56412;53.148;8.204;2022-09-30T07:51:51;100932.31;;;14.41;57.78
61287;BME280;56412;53.148;8.204;2022-09-30T07:53:59;100929.28;;;14.47;57.74
61287;BME280;56412;53.148;8.204;2022-09-30T07:56:26;100929.13;;;14.12;59.09
61287;BME280;56412;53.148;8.204;2022-09-30T07:58:53;100935.97;;;14.26;58.38
61287;BME280;56412;53.148;8.204;2022-09-30T08:01:21;100932.63;;;14.73;57.99
61287;BME280;56412;53.148;8.204;2022-09-30T08:03:46;100931.09;;;14.71;57.62
61287;BME280;56412;53.148;8.204;2022-09-30T08:06:13;100937.03;;;14.97;56.97
61287;BME280;56412;53.148;8.204;2022-09-30T08:08:42;100936.84;;;15.11;56.43
61287;BME280;56412;53.148;8.204;2022-09-30T08:11:08;100940.47;;;15.21;56.76
61287;BME280;56412;53.148;8.204;2022-09-30T08:13:35;100938.41;;;15.14;56.62
61287;BME280;56412;53.148;8.204;2022-09-30T08:16:01;100939.78;;;15.31;56.73
61287;BME280;56412;53.148;8.204;2022-09-30T08:18:26;100940.69;;;15.54;56.06
61287;BME280;56412;53.148;8.204;2022-09-30T08:20:52;100936.94;;;15.69;55.75
61287;BME280;56412;53.148;8.204;2022-09-30T08:23:17;100941.34;;;15.80;55.73
61287;BME280;56412;53.148;8.204;2022-09-30T08:25:43;100941.13;;;15.83;55.66
61287;BME280;56412;53.148;8.204;2022-09-30T08:28:08;100945.50;;;15.82;55.64
61287;BME280;56412;53.148;8.204;2022-09-30T08:30:34;100954.81;;;15.62;55.90
61287;BME280;56412;53.148;8.204;2022-09-30T08:33:00;100952.25;;;15.85;55.55
61287;BME280;56412;53.148;8.204;2022-09-30T08:35:25;100951.69;;;16.04;55.30
61287;BME280;56412;53.148;8.204;2022-09-30T08:37:50;100958.69;;;15.81;55.61
61287;BME280;56412;53.148;8.204;2022-09-30T08:40:17;100957.00;;;15.69;55.96
61287;BME280;56412;53.148;8.204;2022-09-30T08:45:42;100958.59;;;16.27;55.01
61287;BME280;56412;53.148;8.204;2022-09-30T08:48:25;100956.56;;;16.20;54.54
61287;BME280;56412;53.148;8.204;2022-09-30T08:51:06;100960.34;;;16.38;54.41
61287;BME280;56412;53.148;8.204;2022-09-30T08:53:45;100953.56;;;15.79;55.45
61287;BME280;56412;53.148;8.204;2022-09-30T08:56:16;100966.75;;;15.78;56.04
61287;BME280;56412;53.148;8.204;2022-09-30T08:58:47;100961.53;;;15.89;55.71
61287;BME280;56412;53.148;8.204;2022-09-30T09:01:19;100969.72;;;16.41;54.47
61287;BME280;56412;53.148;8.204;2022-09-30T09:03:48;100975.69;;;16.43;54.31
61287;BME280;56412;53.148;8.204;2022-09-30T09:09:18;100969.88;;;16.17;54.50
61287;BME280;56412;53.148;8.204;2022-09-30T09:20:16;100967.78;;;16.88;52.81
61287;BME280;56412;53.148;8.204;2022-09-30T09:22:45;100972.31;;;16.86;52.37
61287;BME280;56412;53.148;8.204;2022-09-30T09:25:18;100970.69;;;17.06;52.77
61287;BME280;56412;53.148;8.204;2022-09-30T09:27:50;100972.09;;;17.21;51.63
61287;BME280;56412;53.148;8.204;2022-09-30T09:30:23;100967.81;;;17.09;51.46
61287;BME280;56412;53.148;8.204;2022-09-30T09:33:15;100968.47;;;16.24;54.16
61287;BME280;56412;53.148;8.204;2022-09-30T09:47:08;100971.34;;;17.51;50.88
61287;BME280;56412;53.148;8.204;2022-09-30T09:49:39;100973.97;;;17.72;49.95
61287;BME280;56412;53.148;8.204;2022-09-30T09:54:55;100972.81;;;16.79;52.05
61287;BME280;56412;53.148;8.204;2022-09-30T09:57:21;100980.59;;;17.55;50.26
61287;BME280;56412;53.148;8.204;2022-09-30T09:59:53;100967.88;;;17.30;50.08
61287;BME280;56412;53.148;8.204;2022-09-30T10:02:26;100972.84;;;17.86;49.08
61287;BME280;56412;53.148;8.204;2022-09-30T10:04:53;100972.00;;;17.85;48.33
61287;BME280;56412;53.148;8.204;2022-09-30T10:07:26;100974.50;;;17.13;50.66
61287;BME280;56412;53.148;8.204;2022-09-30T10:10:06;100968.97;;;17.69;49.00
61287;BME280;56412;53.148;8.204;2022-09-30T10:12:42;100970.16;;;17.97;48.17
61287;BME280;56412;53.148;8.204;2022-09-30T10:15:12;100975.94;;;18.41;46.73
61287;BME280;56412;53.148;8.204;2022-09-30T10:17:49;100972.69;;;19.18;46.31
61287;BME280;56412;53.148;8.204;2022-09-30T10:20:30;100969.72;;;19.70;43.73
61287;BME280;56412;53.148;8.204;2022-09-30T10:23:01;100973.31;;;19.79;43.93
61287;BME280;56412;53.148;8.204;2022-09-30T10:26:02;100953.56;;;20.12;43.30
61287;BME280;56412;53.148;8.204;2022-09-30T10:31:36;100963.25;;;19.45;44.37
61287;BME280;56412;53.148;8.204;2022-09-30T10:36:58;100957.34;;;18.94;44.56
61287;BME280;56412;53.148;8.204;2022-09-30T10:39:35;100959.13;;;19.13;44.80
61287;BME280;56412;53.148;8.204;2022-09-30T10:44:44;100966.84;;;18.05;46.06
61287;BME280;56412;53.148;8.204;2022-09-30T10:47:13;100962.91;;;17.89;46.61
61287;BME280;56412;53.148;8.204;2022-09-30T10:52:23;100956.13;;;18.17;46.86
61287;BME280;56412;53.148;8.204;2022-09-30T10:54:52;100960.09;;;18.83;45.61
61287;BME280;56412;53.148;8.204;2022-09-30T10:57:37;100956.50;;;19.99;43.36
61287;BME280;56412;53.148;8.204;2022-09-30T11:00:21;100953.56;;;20.85;42.05
61287;BME280;56412;53.148;8.204;2022-09-30T11:10:39;100968.19;;;21.77;39.71
61287;BME280;56412;53.148;8.204;2022-09-30T11:13:15;100970.84;;;22.45;37.57
61287;BME280;56412;53.148;8.204;2022-09-30T11:16:10;100971.94;;;21.13;39.44
61287;BME280;56412;53.148;8.204;2022-09-30T11:18:47;100974.84;;;21.89;38.81
61287;BME280;56412;53.148;8.204;2022-09-30T11:23:59;100960.53;;;24.31;35.56
61287;BME280;56412;53.148;8.204;2022-09-30T11:43:14;100947.44;;;21.82;37.12
61287;BME280;56412;53.148;8.204;2022-09-30T11:54:01;100948.22;;;21.48;37.65
61287;BME280;56412;53.148;8.204;2022-09-30T11:56:42;100941.25;;;21.21;37.32
61287;BME280;56412;53.148;8.204;2022-09-30T11:59:26;100940.19;;;20.78;38.16
61287;BME280;56412;53.148;8.204;2022-09-30T12:01:57;100942.38;;;21.01;37.82
61287;BME280;56412;53.148;8.204;2022-09-30T12:04:28;100933.81;;;20.81;38.67
61287;BME280;56412;53.148;8.204;2022-09-30T12:07:13;100931.66;;;21.38;37.93
61287;BME280;56412;53.148;8.204;2022-09-30T12:09:51;100928.69;;;20.97;38.23
61287;BME280;56412;53.148;8.204;2022-09-30T12:12:23;100927.44;;;20.28;39.56
61287;BME280;56412;53.148;8.204;2022-09-30T12:14:50;100933.22;;;19.67;41.02
61287;BME280;56412;53.148;8.204;2022-09-30T12:17:24;100928.03;;;19.94;40.10
61287;BME280;56412;53.148;8.204;2022-09-30T12:19:53;100931.19;;;20.26;39.88
61287;BME280;56412;53.148;8.204;2022-09-30T12:22:29;100932.88;;;20.54;39.37
61287;BME280;56412;53.148;8.204;2022-09-30T12:25:01;100928.44;;;21.08;38.44
61287;BME280;56412;53.148;8.204;2022-09-30T12:27:39;100922.41;;;22.71;35.65
61287;BME280;56412;53.148;8.204;2022-09-30T12:30:17;100921.47;;;23.13;35.26
61287;BME280;56412;53.148;8.204;2022-09-30T12:32:57;100923.97;;;22.39;36.01
61287;BME280;56412;53.148;8.204;2022-09-30T12:41:02;100915.47;;;26.49;28.73
61287;BME280;56412;53.148;8.204;2022-09-30T12:49:26;100906.88;;;24.91;30.44
61287;BME280;56412;53.148;8.204;2022-09-30T12:51:56;100906.22;;;25.50;29.64
61287;BME280;56412;53.148;8.204;2022-09-30T12:54:27;100895.56;;;24.97;31.46
61287;BME280;56412;53.148;8.204;2022-09-30T12:56:58;100902.25;;;24.70;31.39
61287;BME280;56412;53.148;8.204;2022-09-30T12:59:29;100904.81;;;25.01;30.89
61287;BME280;56412;53.148;8.204;2022-09-30T13:01:57;100903.84;;;25.99;28.38
61287;BME280;56412;53.148;8.204;2022-09-30T13:09:35;100902.84;;;26.15;27.67
61287;BME280;56412;53.148;8.204;2022-09-30T13:19:39;100887.97;;;24.56;29.56
61287;BME280;56412;53.148;8.204;2022-09-30T13:25:02;100887.56;;;23.41;31.35
61287;BME280;56412;53.148;8.204;2022-09-30T13:27:32;100890.66;;;24.09;31.87
61287;BME280;56412;53.148;8.204;2022-09-30T13:29:58;100891.22;;;25.27;29.11
61287;BME280;56412;53.148;8.204;2022-09-30T13:32:35;100879.88;;;24.50;30.28
61287;BME280;56412;53.148;8.204;2022-09-30T13:35:11;100891.28;;;24.96;29.97
61287;BME280;56412;53.148;8.204;2022-09-30T13:40:36;100882.53;;;24.18;29.99
61287;BME280;56412;53.148;8.204;2022-09-30T13:43:12;100887.41;;;25.59;29.17
61287;BME280;56412;53.148;8.204;2022-09-30T13:45:44;100881.16;;;25.82;28.92
61287;BME280;56412;53.148;8.204;2022-09-30T13:48:15;100878.88;;;25.64;28.83
61287;BME280;56412;53.148;8.204;2022-09-30T13:50:53;100882.63;;;25.40;28.60
61287;BME280;56412;53.148;8.204;2022-09-30T13:55:59;100885.47;;;23.92;31.26
61287;BME280;56412;53.148;8.204;2022-09-30T14:12:22;100860.94;;;21.86;34.05
61287;BME280;56412;53.148;8.204;2022-09-30T14:15:37;100852.31;;;21.23;34.81
61287;BME280;56412;53.148;8.204;2022-09-30T14:23:57;100854.81;;;21.77;35.01
61287;BME280;56412;53.148;8.204;2022-09-30T14:29:27;100855.09;;;20.96;35.05
61287;BME280;56412;53.148;8.204;2022-09-30T14:32:19;100850.75;;;21.30;35.05
61287;BME280;56412;53.148;8.204;2022-09-30T14:34:50;100850.13;;;21.63;34.72
61287;BME280;56412;53.148;8.204;2022-09-30T14:37:40;100848.16;;;21.65;34.60
61287;BME280;56412;53.148;8.204;2022-09-30T14:40:27;100848.72;;;21.42;35.05
61287;BME280;56412;53.148;8.204;2022-09-30T14:42:57;100845.91;;;21.78;35.02
61287;BME280;56412;53.148;8.204;2022-09-30T14:45:27;100846.03;;;21.68;34.59
61287;BME280;56412;53.148;8.204;2022-09-30T14:47:58;100841.28;;;21.20;34.69
61287;BME280;56412;53.148;8.204;2022-09-30T14:50:29;100840.97;;;21.23;34.64
61287;BME280;56412;53.148;8.204;2022-09-30T14:53:00;100831.94;;;21.51;35.07
61287;BME280;56412;53.148;8.204;2022-09-30T15:01:02;100835.03;;;21.81;34.59
61287;BME280;56412;53.148;8.204;2022-09-30T15:03:29;100835.22;;;21.88;33.80
61287;BME280;56412;53.148;8.204;2022-09-30T15:05:58;100829.88;;;21.63;34.73
61287;BME280;56412;53.148;8.204;2022-09-30T15:08:23;100820.94;;;21.98;34.51
61287;BME280;56412;53.148;8.204;2022-09-30T15:10:50;100819.63;;;21.94;33.94
61287;BME280;56412;53.148;8.204;2022-09-30T15:13:18;100822.72;;;21.47;35.07
61287;BME280;56412;53.148;8.204;2022-09-30T15:15:46;100828.78;;;21.74;34.76
61287;BME280;56412;53.148;8.204;2022-09-30T15:18:21;100825.00;;;21.85;34.61
61287;BME280;56412;53.148;8.204;2022-09-30T15:20:46;100822.25;;;22.03;34.24
61287;BME280;56412;53.148;8.204;2022-09-30T15:23:16;100821.00;;;22.15;34.27
61287;BME280;56412;53.148;8.204;2022-09-30T15:25:45;100822.47;;;22.17;34.09
61287;BME280;56412;53.148;8.204;2022-09-30T15:28:11;100826.31;;;22.39;33.81
61287;BME280;56412;53.148;8.204;2022-09-30T15:30:36;100824.03;;;22.36;33.41
61287;BME280;56412;53.148;8.204;2022-09-30T15:33:03;100834.84;;;22.17;33.97
61287;BME280;56412;53.148;8.204;2022-09-30T15:35:29;100819.63;;;22.11;34.09
61287;BME280;56412;53.148;8.204;2022-09-30T15:38:06;100812.63;;;21.85;34.70
61287;BME280;56412;53.148;8.204;2022-09-30T15:40:34;100825.59;;;21.10;35.31
61287;BME280;56412;53.148;8.204;2022-09-30T15:43:28;100828.03;;;21.03;35.66
61287;BME280;56412;53.148;8.204;2022-09-30T15:46:16;100827.81;;;21.23;35.66
61287;BME280;56412;53.148;8.204;2022-09-30T15:48:42;100822.75;;;21.03;35.52
61287;BME280;56412;53.148;8.204;2022-09-30T15:51:44;100825.09;;;21.15;35.76
61287;BME280;56412;53.148;8.204;2022-09-30T15:57:55;100821.13;;;21.63;34.97
61287;BME280;56412;53.148;8.204;2022-09-30T16:03:06;100825.03;;;21.50;35.60
61287;BME280;56412;53.148;8.204;2022-09-30T16:05:43;100824.75;;;21.36;35.53
61287;BME280;56412;53.148;8.204;2022-09-30T16:08:09;100817.19;;;21.15;36.03
61287;BME280;56412;53.148;8.204;2022-09-30T16:10:47;100812.28;;;20.94;36.30
61287;BME280;56412;53.148;8.204;2022-09-30T16:13:16;100816.47;;;20.78;36.75
61287;BME280;56412;53.148;8.204;2022-09-30T16:15:41;100817.09;;;20.54;37.06